ASA277 KSMF-KPDX
Flight info
| Callsign | ASA277 |
|---|---|
| Flight time | 1h 13m |
| Altitude | 36000 |
| Route | RBL MACHU TMBRS4 |
| Aircraft | B739/M-SDE2E3FGHIRWXY/LB1 |
Departure
| Time | 2026-05-06 03:11 |
|---|---|
| Airport | Sacramento International Airport (KSMF) |
Arrival
| Time | 2026-05-06 04:24 |
|---|---|
| Airport | Portland International Airport (KPDX) |
| Time | Latitude | Longitude | Altitude | Speed | Heading |
|---|---|---|---|---|---|
| 2026-05-06 02:40 | 38.69519 | -121.59080 | 32 ft | 0 kts | 311° |
| 2026-05-06 02:59 | 38.69513 | -121.59071 | 25 ft | 4 kts | 312° |
| 2026-05-06 03:00 | 38.69494 | -121.59047 | 32 ft | 4 kts | 319° |
| 2026-05-06 03:00 | 38.69473 | -121.59028 | 32 ft | 4 kts | 347° |
| 2026-05-06 03:00 | 38.69460 | -121.59024 | 31 ft | 3 kts | 83° |
| 2026-05-06 03:00 | 38.69459 | -121.59033 | 30 ft | 0 kts | 91° |
| 2026-05-06 03:05 | 38.69458 | -121.58988 | 32 ft | 0 kts | 91° |
| 2026-05-06 03:05 | 38.69458 | -121.58986 | 32 ft | 3 kts | 91° |
| 2026-05-06 03:06 | 38.69508 | -121.58921 | 32 ft | 19 kts | 8° |
| 2026-05-06 03:06 | 38.69649 | -121.58918 | 33 ft | 20 kts | 0° |
| 2026-05-06 03:06 | 38.69763 | -121.58974 | 32 ft | 19 kts | 285° |
| 2026-05-06 03:06 | 38.69767 | -121.59142 | 32 ft | 19 kts | 270° |
| 2026-05-06 03:07 | 38.69768 | -121.59308 | 32 ft | 18 kts | 272° |
| 2026-05-06 03:07 | 38.69771 | -121.59484 | 33 ft | 24 kts | 271° |
| 2026-05-06 03:07 | 38.69773 | -121.59690 | 33 ft | 23 kts | 271° |
| 2026-05-06 03:07 | 38.69805 | -121.59857 | 32 ft | 19 kts | 336° |
| 2026-05-06 03:08 | 38.69935 | -121.59864 | 33 ft | 19 kts | 0° |
| 2026-05-06 03:08 | 38.70102 | -121.59862 | 34 ft | 29 kts | 0° |
| 2026-05-06 03:08 | 38.70318 | -121.59857 | 34 ft | 31 kts | 1° |
| 2026-05-06 03:08 | 38.70525 | -121.59852 | 34 ft | 29 kts | 1° |
| 2026-05-06 03:09 | 38.70687 | -121.59855 | 34 ft | 18 kts | 341° |
| 2026-05-06 03:09 | 38.70718 | -121.59947 | 34 ft | 0 kts | 269° |
| 2026-05-06 03:09 | 38.70718 | -121.59952 | 34 ft | 5 kts | 269° |
| 2026-05-06 03:10 | 38.70718 | -121.60048 | 33 ft | 13 kts | 264° |
| 2026-05-06 03:10 | 38.70663 | -121.60107 | 34 ft | 1 kts | 180° |
| 2026-05-06 03:10 | 38.70544 | -121.60109 | 36 ft | 52 kts | 180° |
| 2026-05-06 03:10 | 38.69909 | -121.60115 | 34 ft | 129 kts | 180° |
| 2026-05-06 03:11 | 38.68826 | -121.60130 | 266 ft | 168 kts | 180° |
| 2026-05-06 03:11 | 38.67661 | -121.60170 | 1275 ft | 166 kts | 184° |
| 2026-05-06 03:11 | 38.66526 | -121.60352 | 2196 ft | 167 kts | 195° |
| 2026-05-06 03:11 | 38.65371 | -121.60529 | 2858 ft | 171 kts | 176° |
| 2026-05-06 03:12 | 38.64161 | -121.60158 | 3269 ft | 188 kts | 157° |
| 2026-05-06 03:12 | 38.63071 | -121.59232 | 3832 ft | 192 kts | 129° |
| 2026-05-06 03:12 | 38.62577 | -121.57653 | 4341 ft | 198 kts | 90° |
| 2026-05-06 03:12 | 38.62926 | -121.55902 | 4612 ft | 216 kts | 55° |
| 2026-05-06 03:13 | 38.63983 | -121.54416 | 4814 ft | 240 kts | 34° |
| 2026-05-06 03:13 | 38.65608 | -121.53729 | 5120 ft | 258 kts | 356° |
| 2026-05-06 03:13 | 38.67328 | -121.54331 | 5868 ft | 260 kts | 339° |
| 2026-05-06 03:13 | 38.69005 | -121.55228 | 6640 ft | 262 kts | 338° |
| 2026-05-06 03:14 | 38.70689 | -121.56147 | 7390 ft | 265 kts | 339° |
| 2026-05-06 03:14 | 38.72412 | -121.57017 | 8111 ft | 268 kts | 344° |
| 2026-05-06 03:14 | 38.74221 | -121.57685 | 8817 ft | 272 kts | 347° |
| 2026-05-06 03:14 | 38.76064 | -121.58297 | 9569 ft | 275 kts | 348° |
| 2026-05-06 03:15 | 38.77914 | -121.58901 | 10255 ft | 280 kts | 349° |
| 2026-05-06 03:15 | 38.79896 | -121.59550 | 10499 ft | 302 kts | 348° |
| 2026-05-06 03:15 | 38.81974 | -121.60237 | 10670 ft | 324 kts | 348° |
| 2026-05-06 03:15 | 38.84224 | -121.60990 | 10833 ft | 344 kts | 348° |
| 2026-05-06 03:16 | 38.86603 | -121.61796 | 11093 ft | 359 kts | 348° |
| 2026-05-06 03:16 | 38.89035 | -121.62630 | 11634 ft | 364 kts | 347° |
| 2026-05-06 03:16 | 38.91488 | -121.63478 | 12300 ft | 366 kts | 347° |
| 2026-05-06 03:16 | 38.93956 | -121.64333 | 12937 ft | 368 kts | 347° |
| 2026-05-06 03:17 | 38.96440 | -121.65195 | 13544 ft | 372 kts | 347° |
| 2026-05-06 03:17 | 38.98948 | -121.66066 | 14112 ft | 375 kts | 347° |
| 2026-05-06 03:17 | 39.01475 | -121.66943 | 14649 ft | 377 kts | 347° |
| 2026-05-06 03:17 | 39.04019 | -121.67828 | 15183 ft | 380 kts | 347° |
| 2026-05-06 03:18 | 39.06586 | -121.68721 | 15713 ft | 383 kts | 347° |
| 2026-05-06 03:18 | 39.09167 | -121.69619 | 16236 ft | 386 kts | 347° |
| 2026-05-06 03:18 | 39.11773 | -121.70527 | 16745 ft | 389 kts | 347° |
| 2026-05-06 03:18 | 39.14398 | -121.71442 | 17232 ft | 392 kts | 347° |
| 2026-05-06 03:19 | 39.17041 | -121.72364 | 17720 ft | 395 kts | 347° |
| 2026-05-06 03:19 | 39.19709 | -121.73295 | 18204 ft | 398 kts | 347° |
| 2026-05-06 03:19 | 39.22393 | -121.74233 | 18637 ft | 401 kts | 347° |
| 2026-05-06 03:19 | 39.25087 | -121.75176 | 19112 ft | 401 kts | 347° |
| 2026-05-06 03:20 | 39.30486 | -121.77066 | 20012 ft | 404 kts | 347° |
| 2026-05-06 03:20 | 39.33208 | -121.78020 | 20423 ft | 406 kts | 347° |
| 2026-05-06 03:20 | 39.35942 | -121.78979 | 20856 ft | 408 kts | 347° |
| 2026-05-06 03:21 | 39.38688 | -121.79943 | 21289 ft | 410 kts | 347° |
| 2026-05-06 03:21 | 39.41447 | -121.80912 | 21707 ft | 412 kts | 347° |
| 2026-05-06 03:21 | 39.44213 | -121.81884 | 22127 ft | 413 kts | 347° |
| 2026-05-06 03:21 | 39.46999 | -121.82865 | 22526 ft | 415 kts | 347° |
| 2026-05-06 03:22 | 39.49793 | -121.83849 | 22911 ft | 417 kts | 347° |
| 2026-05-06 03:22 | 39.52597 | -121.84837 | 23290 ft | 419 kts | 347° |
| 2026-05-06 03:22 | 39.55423 | -121.85834 | 23662 ft | 421 kts | 347° |
| 2026-05-06 03:22 | 39.58259 | -121.86835 | 23967 ft | 423 kts | 347° |
| 2026-05-06 03:23 | 39.61105 | -121.87841 | 24292 ft | 425 kts | 347° |
| 2026-05-06 03:23 | 39.63964 | -121.88852 | 24605 ft | 427 kts | 347° |
| 2026-05-06 03:23 | 39.66838 | -121.89870 | 24909 ft | 429 kts | 347° |
| 2026-05-06 03:23 | 39.69727 | -121.90893 | 25210 ft | 431 kts | 347° |
| 2026-05-06 03:24 | 39.71645 | -121.91573 | 25410 ft | 433 kts | 347° |
| 2026-05-06 03:24 | 39.74557 | -121.92606 | 25706 ft | 435 kts | 347° |
| 2026-05-06 03:24 | 39.77480 | -121.93644 | 26003 ft | 437 kts | 347° |
| 2026-05-06 03:24 | 39.80419 | -121.94689 | 26286 ft | 439 kts | 347° |
| 2026-05-06 03:25 | 39.83370 | -121.95739 | 26573 ft | 441 kts | 347° |
| 2026-05-06 03:25 | 39.86337 | -121.96795 | 26855 ft | 443 kts | 347° |
| 2026-05-06 03:25 | 39.89314 | -121.97856 | 27136 ft | 445 kts | 347° |
| 2026-05-06 03:25 | 39.92305 | -121.98923 | 27409 ft | 447 kts | 347° |
| 2026-05-06 03:26 | 39.95302 | -122.00018 | 27680 ft | 449 kts | 345° |
| 2026-05-06 03:26 | 39.98239 | -122.01409 | 28051 ft | 450 kts | 341° |
| 2026-05-06 03:26 | 40.01128 | -122.02969 | 28501 ft | 448 kts | 340° |
| 2026-05-06 03:26 | 40.03987 | -122.04571 | 28947 ft | 447 kts | 340° |
| 2026-05-06 03:27 | 40.06842 | -122.06172 | 29335 ft | 446 kts | 342° |
| 2026-05-06 03:27 | 40.09825 | -122.07162 | 29697 ft | 441 kts | 355° |
| 2026-05-06 03:27 | 40.12867 | -122.07590 | 30068 ft | 440 kts | 356° |
| 2026-05-06 03:27 | 40.15906 | -122.08069 | 30420 ft | 440 kts | 353° |
| 2026-05-06 03:28 | 40.18924 | -122.08758 | 30776 ft | 440 kts | 351° |
| 2026-05-06 03:28 | 40.21875 | -122.09601 | 31070 ft | 441 kts | 349° |
| 2026-05-06 03:28 | 40.24852 | -122.10572 | 31418 ft | 440 kts | 348° |
| 2026-05-06 03:28 | 40.27805 | -122.11608 | 31802 ft | 438 kts | 347° |
| 2026-05-06 03:29 | 40.30736 | -122.12670 | 32190 ft | 436 kts | 347° |
| 2026-05-06 03:29 | 40.33658 | -122.13739 | 32548 ft | 435 kts | 347° |
| 2026-05-06 03:29 | 40.36562 | -122.14804 | 32962 ft | 432 kts | 347° |
| 2026-05-06 03:29 | 40.39451 | -122.15862 | 33343 ft | 430 kts | 347° |
| 2026-05-06 03:30 | 40.42332 | -122.16913 | 33589 ft | 430 kts | 347° |
| 2026-05-06 03:30 | 40.45219 | -122.17962 | 33838 ft | 431 kts | 347° |
| 2026-05-06 03:30 | 40.48102 | -122.19009 | 34123 ft | 430 kts | 347° |
| 2026-05-06 03:30 | 40.50980 | -122.20055 | 34417 ft | 428 kts | 347° |
| 2026-05-06 03:31 | 40.53842 | -122.21096 | 34685 ft | 426 kts | 347° |
| 2026-05-06 03:31 | 40.56701 | -122.22136 | 34900 ft | 426 kts | 347° |
| 2026-05-06 03:31 | 40.59562 | -122.23177 | 35117 ft | 426 kts | 347° |
| 2026-05-06 03:31 | 40.62414 | -122.24216 | 35340 ft | 425 kts | 347° |
| 2026-05-06 03:32 | 40.65267 | -122.25257 | 35551 ft | 425 kts | 347° |
| 2026-05-06 03:32 | 40.68112 | -122.26296 | 35794 ft | 424 kts | 347° |
| 2026-05-06 03:32 | 40.70949 | -122.27332 | 36027 ft | 423 kts | 347° |
| 2026-05-06 03:32 | 40.73796 | -122.28373 | 36010 ft | 426 kts | 347° |
| 2026-05-06 03:33 | 40.79529 | -122.30471 | 36034 ft | 428 kts | 347° |
| 2026-05-06 03:33 | 40.85273 | -122.32580 | 36051 ft | 429 kts | 347° |
| 2026-05-06 03:34 | 40.91021 | -122.34694 | 36054 ft | 429 kts | 347° |
| 2026-05-06 03:34 | 40.96771 | -122.36811 | 36036 ft | 429 kts | 347° |
| 2026-05-06 03:35 | 41.02525 | -122.38938 | 36045 ft | 429 kts | 347° |
| 2026-05-06 03:35 | 41.08273 | -122.41050 | 36059 ft | 428 kts | 347° |
| 2026-05-06 03:36 | 41.14016 | -122.43139 | 36077 ft | 427 kts | 347° |
| 2026-05-06 03:36 | 41.19752 | -122.45289 | 36052 ft | 428 kts | 347° |
| 2026-05-06 03:37 | 41.25485 | -122.47429 | 36054 ft | 426 kts | 347° |
| 2026-05-06 03:37 | 41.31197 | -122.49564 | 36018 ft | 426 kts | 347° |
| 2026-05-06 03:38 | 41.36904 | -122.51676 | 36046 ft | 428 kts | 347° |
| 2026-05-06 03:38 | 41.42652 | -122.53849 | 36028 ft | 430 kts | 347° |
| 2026-05-06 03:39 | 41.48386 | -122.55991 | 36016 ft | 432 kts | 347° |
| 2026-05-06 03:39 | 41.54208 | -122.57873 | 35992 ft | 429 kts | 357° |
| 2026-05-06 03:40 | 41.60158 | -122.58237 | 36035 ft | 428 kts | 360° |
| 2026-05-06 03:40 | 41.66103 | -122.58479 | 36012 ft | 427 kts | 359° |
| 2026-05-06 03:41 | 41.72029 | -122.58807 | 36005 ft | 426 kts | 359° |
| 2026-05-06 03:41 | 41.77939 | -122.59184 | 36008 ft | 425 kts | 359° |
| 2026-05-06 03:42 | 41.83839 | -122.59572 | 36005 ft | 424 kts | 359° |
| 2026-05-06 03:42 | 41.89722 | -122.59961 | 36009 ft | 423 kts | 359° |
| 2026-05-06 03:43 | 41.95607 | -122.60347 | 36020 ft | 423 kts | 359° |
| 2026-05-06 03:43 | 42.01487 | -122.60734 | 36019 ft | 423 kts | 359° |
| 2026-05-06 03:44 | 42.07364 | -122.61121 | 35994 ft | 422 kts | 358° |
| 2026-05-06 03:44 | 42.13223 | -122.61507 | 35994 ft | 422 kts | 358° |
| 2026-05-06 03:45 | 42.19085 | -122.61896 | 35990 ft | 422 kts | 358° |
| 2026-05-06 03:45 | 42.24943 | -122.62286 | 35998 ft | 422 kts | 358° |
| 2026-05-06 03:46 | 42.30770 | -122.62673 | 35991 ft | 422 kts | 359° |
| 2026-05-06 03:46 | 42.36642 | -122.63066 | 35993 ft | 423 kts | 358° |
| 2026-05-06 03:47 | 42.42566 | -122.63463 | 35992 ft | 424 kts | 358° |
| 2026-05-06 03:47 | 42.48421 | -122.63856 | 35984 ft | 424 kts | 358° |
| 2026-05-06 03:48 | 42.54317 | -122.64252 | 35999 ft | 424 kts | 358° |
| 2026-05-06 03:48 | 42.60216 | -122.64649 | 36017 ft | 425 kts | 358° |
| 2026-05-06 03:49 | 42.66120 | -122.65043 | 36000 ft | 424 kts | 358° |
| 2026-05-06 03:49 | 42.72015 | -122.65445 | 35999 ft | 424 kts | 358° |
| 2026-05-06 03:50 | 42.77906 | -122.65846 | 35995 ft | 424 kts | 358° |
| 2026-05-06 03:50 | 42.83784 | -122.66245 | 36014 ft | 423 kts | 358° |
| 2026-05-06 03:51 | 42.89660 | -122.66641 | 36016 ft | 422 kts | 358° |
| 2026-05-06 03:51 | 42.95530 | -122.67042 | 36033 ft | 423 kts | 358° |
| 2026-05-06 03:52 | 43.01414 | -122.67444 | 36025 ft | 423 kts | 358° |
| 2026-05-06 03:52 | 43.07294 | -122.67846 | 36029 ft | 423 kts | 358° |
| 2026-05-06 03:53 | 43.13175 | -122.68248 | 36027 ft | 423 kts | 358° |
| 2026-05-06 03:53 | 43.19055 | -122.68652 | 36023 ft | 423 kts | 358° |
| 2026-05-06 03:54 | 43.24940 | -122.69057 | 36030 ft | 423 kts | 358° |
| 2026-05-06 03:54 | 43.30828 | -122.69463 | 36040 ft | 424 kts | 358° |
| 2026-05-06 03:55 | 43.36708 | -122.69868 | 36047 ft | 423 kts | 358° |
| 2026-05-06 03:55 | 43.42539 | -122.70272 | 36045 ft | 422 kts | 358° |
| 2026-05-06 03:56 | 43.48406 | -122.70676 | 36061 ft | 422 kts | 358° |
| 2026-05-06 03:56 | 43.54314 | -122.71085 | 36046 ft | 422 kts | 358° |
| 2026-05-06 03:57 | 43.60146 | -122.71486 | 36047 ft | 422 kts | 358° |
| 2026-05-06 03:57 | 43.66018 | -122.71893 | 36066 ft | 423 kts | 358° |
| 2026-05-06 03:58 | 43.71900 | -122.72301 | 36065 ft | 423 kts | 358° |
| 2026-05-06 03:58 | 43.77780 | -122.72710 | 36018 ft | 423 kts | 358° |
| 2026-05-06 03:59 | 43.80758 | -122.72919 | 35400 ft | 432 kts | 358° |
| 2026-05-06 03:59 | 43.83746 | -122.73128 | 34747 ft | 430 kts | 358° |
| 2026-05-06 03:59 | 43.86748 | -122.73337 | 33938 ft | 432 kts | 358° |
| 2026-05-06 03:59 | 43.89754 | -122.73547 | 33020 ft | 434 kts | 358° |
| 2026-05-06 04:00 | 43.92771 | -122.73758 | 32246 ft | 433 kts | 358° |
| 2026-05-06 04:00 | 43.95759 | -122.73967 | 31703 ft | 428 kts | 358° |
| 2026-05-06 04:00 | 43.98720 | -122.74175 | 31134 ft | 424 kts | 358° |
| 2026-05-06 04:00 | 44.01657 | -122.74381 | 30586 ft | 421 kts | 357° |
| 2026-05-06 04:01 | 44.04570 | -122.74586 | 29995 ft | 418 kts | 357° |
| 2026-05-06 04:01 | 44.07468 | -122.74790 | 29353 ft | 415 kts | 357° |
| 2026-05-06 04:01 | 44.10340 | -122.74992 | 28764 ft | 411 kts | 357° |
| 2026-05-06 04:01 | 44.13182 | -122.75192 | 28227 ft | 407 kts | 357° |
| 2026-05-06 04:02 | 44.15999 | -122.75343 | 27572 ft | 405 kts | 0° |
| 2026-05-06 04:02 | 44.18832 | -122.75186 | 26814 ft | 407 kts | 4° |
| 2026-05-06 04:02 | 44.21646 | -122.74868 | 26204 ft | 405 kts | 5° |
| 2026-05-06 04:02 | 44.24442 | -122.74517 | 25671 ft | 402 kts | 5° |
| 2026-05-06 04:03 | 44.27221 | -122.74181 | 25137 ft | 399 kts | 5° |
| 2026-05-06 04:03 | 44.29981 | -122.73869 | 24618 ft | 397 kts | 5° |
| 2026-05-06 04:03 | 44.32726 | -122.73577 | 24084 ft | 395 kts | 4° |
| 2026-05-06 04:03 | 44.35463 | -122.73300 | 23555 ft | 393 kts | 4° |
| 2026-05-06 04:04 | 44.38150 | -122.73033 | 22950 ft | 391 kts | 4° |
| 2026-05-06 04:04 | 44.40885 | -122.72762 | 22402 ft | 388 kts | 4° |
| 2026-05-06 04:04 | 44.43529 | -122.72501 | 21885 ft | 384 kts | 4° |
| 2026-05-06 04:04 | 44.46181 | -122.72240 | 21387 ft | 381 kts | 4° |
| 2026-05-06 04:05 | 44.48817 | -122.71979 | 20874 ft | 378 kts | 5° |
| 2026-05-06 04:05 | 44.51431 | -122.71719 | 20375 ft | 376 kts | 5° |
| 2026-05-06 04:05 | 44.54028 | -122.71461 | 20034 ft | 369 kts | 5° |
| 2026-05-06 04:05 | 44.56547 | -122.71211 | 19895 ft | 358 kts | 5° |
| 2026-05-06 04:06 | 44.58999 | -122.70968 | 19623 ft | 351 kts | 5° |
| 2026-05-06 04:06 | 44.61441 | -122.70723 | 19115 ft | 352 kts | 5° |
| 2026-05-06 04:06 | 44.63881 | -122.70478 | 18660 ft | 352 kts | 5° |
| 2026-05-06 04:06 | 44.66326 | -122.70232 | 18229 ft | 351 kts | 5° |
| 2026-05-06 04:07 | 44.68759 | -122.69987 | 17752 ft | 350 kts | 5° |
| 2026-05-06 04:07 | 44.71175 | -122.69744 | 17290 ft | 346 kts | 5° |
| 2026-05-06 04:07 | 44.73554 | -122.69505 | 16849 ft | 340 kts | 5° |
| 2026-05-06 04:07 | 44.75889 | -122.69270 | 16425 ft | 334 kts | 5° |
| 2026-05-06 04:08 | 44.78184 | -122.69039 | 16021 ft | 328 kts | 5° |
| 2026-05-06 04:08 | 44.80445 | -122.68811 | 15596 ft | 324 kts | 4° |
| 2026-05-06 04:08 | 44.82689 | -122.68585 | 15166 ft | 321 kts | 4° |
| 2026-05-06 04:08 | 44.84910 | -122.68361 | 14747 ft | 317 kts | 4° |
| 2026-05-06 04:09 | 44.87093 | -122.68142 | 14349 ft | 314 kts | 4° |
| 2026-05-06 04:09 | 44.89258 | -122.67924 | 13956 ft | 311 kts | 4° |
| 2026-05-06 04:09 | 44.91400 | -122.67708 | 13596 ft | 306 kts | 4° |
| 2026-05-06 04:09 | 44.93482 | -122.67498 | 13472 ft | 294 kts | 4° |
| 2026-05-06 04:10 | 44.95477 | -122.67038 | 13230 ft | 291 kts | 14° |
| 2026-05-06 04:10 | 44.97470 | -122.66250 | 13026 ft | 307 kts | 16° |
| 2026-05-06 04:10 | 44.99572 | -122.65372 | 12706 ft | 315 kts | 16° |
| 2026-05-06 04:10 | 45.01657 | -122.64519 | 12310 ft | 311 kts | 15° |
| 2026-05-06 04:11 | 45.03699 | -122.63711 | 11916 ft | 306 kts | 15° |
| 2026-05-06 04:11 | 45.05731 | -122.62926 | 11527 ft | 301 kts | 15° |
| 2026-05-06 04:11 | 45.07737 | -122.62157 | 11136 ft | 296 kts | 15° |
| 2026-05-06 04:11 | 45.09709 | -122.61402 | 10749 ft | 293 kts | 15° |
| 2026-05-06 04:12 | 45.11558 | -122.60215 | 10480 ft | 292 kts | 37° |
| 2026-05-06 04:12 | 45.13012 | -122.58117 | 10224 ft | 302 kts | 52° |
| 2026-05-06 04:12 | 45.14250 | -122.55791 | 10053 ft | 289 kts | 53° |
| 2026-05-06 04:12 | 45.15426 | -122.53525 | 9710 ft | 282 kts | 53° |
| 2026-05-06 04:13 | 45.16572 | -122.51298 | 9403 ft | 285 kts | 56° |
| 2026-05-06 04:13 | 45.17752 | -122.48895 | 9101 ft | 316 kts | 51° |
| 2026-05-06 04:13 | 45.19228 | -122.46319 | 8689 ft | 350 kts | 51° |
| 2026-05-06 04:13 | 45.20703 | -122.43618 | 8239 ft | 340 kts | 52° |
| 2026-05-06 04:14 | 45.22093 | -122.40990 | 7845 ft | 326 kts | 52° |
| 2026-05-06 04:14 | 45.23677 | -122.38826 | 7439 ft | 312 kts | 28° |
| 2026-05-06 04:14 | 45.24989 | -122.37979 | 7269 ft | 301 kts | 18° |
| 2026-05-06 04:14 | 45.26971 | -122.37183 | 6913 ft | 292 kts | 12° |
| 2026-05-06 04:15 | 45.28921 | -122.36568 | 6570 ft | 283 kts | 11° |
| 2026-05-06 04:15 | 45.30801 | -122.35996 | 6228 ft | 275 kts | 11° |
| 2026-05-06 04:15 | 45.32632 | -122.35427 | 6030 ft | 262 kts | 12° |
| 2026-05-06 04:15 | 45.34345 | -122.34882 | 5929 ft | 241 kts | 11° |
| 2026-05-06 04:16 | 45.35921 | -122.34372 | 5782 ft | 224 kts | 12° |
| 2026-05-06 04:16 | 45.37372 | -122.33897 | 5662 ft | 205 kts | 12° |
| 2026-05-06 04:16 | 45.38716 | -122.33454 | 5540 ft | 192 kts | 12° |
| 2026-05-06 04:16 | 45.40012 | -122.33025 | 5321 ft | 191 kts | 12° |
| 2026-05-06 04:17 | 45.41294 | -122.32600 | 5211 ft | 188 kts | 12° |
| 2026-05-06 04:17 | 45.42558 | -122.32142 | 5060 ft | 187 kts | 15° |
| 2026-05-06 04:17 | 45.43793 | -122.31604 | 4910 ft | 186 kts | 16° |
| 2026-05-06 04:17 | 45.45029 | -122.31055 | 4747 ft | 185 kts | 16° |
| 2026-05-06 04:18 | 45.46268 | -122.30588 | 4586 ft | 184 kts | 10° |
| 2026-05-06 04:18 | 45.47503 | -122.30120 | 4402 ft | 183 kts | 10° |
| 2026-05-06 04:18 | 45.48715 | -122.30354 | 4122 ft | 177 kts | 323° |
| 2026-05-06 04:18 | 45.49303 | -122.31781 | 3939 ft | 168 kts | 280° |
| 2026-05-06 04:19 | 45.49539 | -122.33358 | 3731 ft | 160 kts | 288° |
| 2026-05-06 04:19 | 45.49870 | -122.34868 | 3550 ft | 158 kts | 289° |
| 2026-05-06 04:19 | 45.50161 | -122.36357 | 3405 ft | 155 kts | 286° |
| 2026-05-06 04:19 | 45.50485 | -122.37828 | 3204 ft | 156 kts | 291° |
| 2026-05-06 04:20 | 45.50880 | -122.39248 | 2999 ft | 154 kts | 292° |
| 2026-05-06 04:20 | 45.51291 | -122.40652 | 2803 ft | 153 kts | 295° |
| 2026-05-06 04:20 | 45.51758 | -122.42014 | 2593 ft | 153 kts | 297° |
| 2026-05-06 04:20 | 45.52254 | -122.43338 | 2389 ft | 148 kts | 298° |
| 2026-05-06 04:21 | 45.52734 | -122.44604 | 2188 ft | 145 kts | 298° |
| 2026-05-06 04:21 | 45.53243 | -122.45922 | 2007 ft | 156 kts | 299° |
| 2026-05-06 04:21 | 45.53756 | -122.47259 | 1798 ft | 151 kts | 298° |
| 2026-05-06 04:21 | 45.54257 | -122.48558 | 1585 ft | 148 kts | 298° |
| 2026-05-06 04:22 | 45.54751 | -122.49834 | 1380 ft | 145 kts | 298° |
| 2026-05-06 04:22 | 45.55251 | -122.51126 | 1211 ft | 153 kts | 299° |
| 2026-05-06 04:22 | 45.55767 | -122.52464 | 1040 ft | 157 kts | 298° |
| 2026-05-06 04:23 | 45.56809 | -122.55158 | 647 ft | 152 kts | 299° |
| 2026-05-06 04:23 | 45.57308 | -122.56482 | 405 ft | 150 kts | 300° |
| 2026-05-06 04:23 | 45.57819 | -122.57782 | 195 ft | 150 kts | 298° |
| 2026-05-06 04:23 | 45.58316 | -122.59076 | 37 ft | 143 kts | 299° |
| 2026-05-06 04:24 | 45.58748 | -122.60184 | 27 ft | 108 kts | 298° |
| 2026-05-06 04:24 | 45.59037 | -122.60927 | 28 ft | 63 kts | 299° |
| 2026-05-06 04:24 | 45.59193 | -122.61300 | 28 ft | 26 kts | 319° |
| 2026-05-06 04:24 | 45.59312 | -122.61313 | 27 ft | 0 kts | 27° |
| 2026-05-06 04:25 | 45.59318 | -122.61309 | 27 ft | 5 kts | 28° |
| 2026-05-06 04:26 | 45.59342 | -122.61258 | 27 ft | 7 kts | 77° |
| 2026-05-06 04:26 | 45.59330 | -122.61185 | 27 ft | 10 kts | 115° |
| 2026-05-06 04:26 | 45.59322 | -122.61163 | 27 ft | 0 kts | 117° |
| 2026-05-06 04:27 | 45.59297 | -122.61095 | 27 ft | 18 kts | 119° |
| 2026-05-06 04:27 | 45.59224 | -122.60907 | 27 ft | 24 kts | 118° |
| 2026-05-06 04:28 | 45.59148 | -122.60693 | 27 ft | 24 kts | 105° |
| 2026-05-06 04:28 | 45.59143 | -122.60498 | 28 ft | 17 kts | 89° |
| 2026-05-06 04:28 | 45.59144 | -122.60324 | 27 ft | 19 kts | 90° |
| 2026-05-06 04:28 | 45.59142 | -122.60137 | 27 ft | 19 kts | 92° |
| 2026-05-06 04:29 | 45.59139 | -122.59957 | 27 ft | 18 kts | 98° |
| 2026-05-06 04:29 | 45.59090 | -122.59798 | 28 ft | 16 kts | 118° |
| 2026-05-06 04:29 | 45.59043 | -122.59676 | 28 ft | 14 kts | 118° |
| 2026-05-06 04:29 | 45.58998 | -122.59563 | 28 ft | 11 kts | 119° |
| 2026-05-06 04:30 | 45.58965 | -122.59497 | 28 ft | 6 kts | 161° |
| 2026-05-06 04:30 | 45.58925 | -122.59517 | 28 ft | 5 kts | 206° |
| 2026-05-06 04:30 | 45.58913 | -122.59526 | 28 ft | 1 kts | 209° |
| 2026-05-06 04:30 | 45.58905 | -122.59532 | 28 ft | 0 kts | 208° |